Impacts TAF Board
For situational awareness. Not to be used for flight planning purposes.
IDs:

KDFW - Dallas-Ft Worth Intl, TX, US

Issued at 2320 UTC 21 Sep 2021
Updated at 2339 UTC 21 Sep 2021
Potential Impact None Slight Moderate High
Time2253Z 22/00Z 22/01Z 22/02Z 22/03Z 22/04Z 22/05Z 22/06Z 22/07Z 22/08Z 22/09Z 22/10Z 22/11Z 22/12Z>>
Type OBS PRVL PRVL PRVL PRVL PRVL PRVL PRVL PRVL PRVL PRVL PRVL PRVL PRVL
VIS 10 >6 >6 >6 >6 >6 >6 >6 >6 >6 >6 >6 >6 >6
CIG 300 -- -- -- -- -- -- -- -- -- -- -- -- --
Cover BKN SCT SCT SCT FEW FEW FEW FEW FEW FEW FEW FEW FEW FEW
FltCat VFR VFR VFR VFR VFR VFR VFR VFR VFR VFR VFR VFR VFR VFR
WX -- -- -- -- -- -- -- -- -- -- -- -- -- --
WDir 360 360 360 360 10 10 10 10 10 10 10 10 10 10
WSpd 19 20 20 20 11 11 11 11 11 11 11 11 11 11
WGst 26 30 30 30 -- -- -- -- -- -- -- -- -- --
Raw TAF
KDFW 212320Z 2200/2306 36020G30KT P6SM FEW150 SCT250
  FM220300 01011KT P6SM FEW250


Raw METAR
KDFW 212253Z 36019G26KT 10SM FEW150 BKN300 29/07 A3013 RMK AO2 PK WND 36029/2225 SLP194 T02890072
KDFW 212153Z 01015G29KT 10SM FEW150 BKN300 29/09 A3012 RMK AO2 PK WND 35031/2110 SLP190 T02940089
KDFW 212053Z 01021G27KT 10SM SCT160 BKN300 31/11 A3011 RMK AO2 PK WND 36029/2043 SLP187 T03060106 58005

METAR Board
Radar Display
Forecast Discussion
For situational awareness. Not to be used for flight planning purposes.